sensor_id;sensor_type;location;lat;lon;timestamp;temperature;humidity
24636;DHT22;12772;49.794;10.024;2023-02-28T00:01:32;2.10;40.70
24636;DHT22;12772;49.794;10.024;2023-02-28T00:05:34;2.10;41.00
24636;DHT22;12772;49.794;10.024;2023-02-28T00:09:36;2.10;41.10
24636;DHT22;12772;49.794;10.024;2023-02-28T00:13:41;2.10;41.30
24636;DHT22;12772;49.794;10.024;2023-02-28T00:17:44;2.00;41.20
24636;DHT22;12772;49.794;10.024;2023-02-28T00:21:47;2.20;41.40
24636;DHT22;12772;49.794;10.024;2023-02-28T00:25:49;1.60;40.90
24636;DHT22;12772;49.794;10.024;2023-02-28T00:29:51;2.10;41.70
24636;DHT22;12772;49.794;10.024;2023-02-28T00:33:54;2.10;41.70
24636;DHT22;12772;49.794;10.024;2023-02-28T00:37:56;2.00;41.70
24636;DHT22;12772;49.794;10.024;2023-02-28T00:41:58;1.90;41.60
24636;DHT22;12772;49.794;10.024;2023-02-28T00:46:01;1.40;41.30
24636;DHT22;12772;49.794;10.024;2023-02-28T00:50:04;2.00;42.00
24636;DHT22;12772;49.794;10.024;2023-02-28T00:54:07;2.10;42.20
24636;DHT22;12772;49.794;10.024;2023-02-28T00:58:09;1.90;42.00
24636;DHT22;12772;49.794;10.024;2023-02-28T01:02:11;2.00;42.10
24636;DHT22;12772;49.794;10.024;2023-02-28T01:06:13;2.00;42.20
24636;DHT22;12772;49.794;10.024;2023-02-28T01:10:15;1.70;42.00
24636;DHT22;12772;49.794;10.024;2023-02-28T01:14:17;1.90;42.60
24636;DHT22;12772;49.794;10.024;2023-02-28T01:18:20;1.80;42.60
24636;DHT22;12772;49.794;10.024;2023-02-28T01:22:22;1.80;42.80
24636;DHT22;12772;49.794;10.024;2023-02-28T01:26:24;1.70;42.70
24636;DHT22;12772;49.794;10.024;2023-02-28T01:30:26;1.50;42.80
24636;DHT22;12772;49.794;10.024;2023-02-28T01:34:28;1.80;42.90
24636;DHT22;12772;49.794;10.024;2023-02-28T01:38:31;1.70;42.80
24636;DHT22;12772;49.794;10.024;2023-02-28T01:42:33;1.80;43.10
24636;DHT22;12772;49.794;10.024;2023-02-28T01:46:35;1.10;43.00
24636;DHT22;12772;49.794;10.024;2023-02-28T01:50:40;1.10;42.70
24636;DHT22;12772;49.794;10.024;2023-02-28T01:54:47;1.40;43.10
24636;DHT22;12772;49.794;10.024;2023-02-28T01:58:53;1.40;43.30
24636;DHT22;12772;49.794;10.024;2023-02-28T02:02:58;1.20;43.30
24636;DHT22;12772;49.794;10.024;2023-02-28T02:07:01;1.40;43.70
24636;DHT22;12772;49.794;10.024;2023-02-28T02:11:03;1.30;43.70
24636;DHT22;12772;49.794;10.024;2023-02-28T02:15:34;1.40;44.00
24636;DHT22;12772;49.794;10.024;2023-02-28T02:19:48;1.20;44.10
24636;DHT22;12772;49.794;10.024;2023-02-28T02:28:53;1.30;43.80
24636;DHT22;12772;49.794;10.024;2023-02-28T02:33:22;1.30;43.80
24636;DHT22;12772;49.794;10.024;2023-02-28T02:37:38;1.20;43.80
24636;DHT22;12772;49.794;10.024;2023-02-28T02:41:51;1.10;43.90
24636;DHT22;12772;49.794;10.024;2023-02-28T02:45:57;1.10;44.00
24636;DHT22;12772;49.794;10.024;2023-02-28T02:50:04;1.20;43.80
24636;DHT22;12772;49.794;10.024;2023-02-28T02:54:28;1.10;43.90
24636;DHT22;12772;49.794;10.024;2023-02-28T02:58:35;1.30;44.30
24636;DHT22;12772;49.794;10.024;2023-02-28T03:02:43;1.00;44.10
24636;DHT22;12772;49.794;10.024;2023-02-28T03:06:46;1.00;44.00
24636;DHT22;12772;49.794;10.024;2023-02-28T03:10:57;0.90;43.70
24636;DHT22;12772;49.794;10.024;2023-02-28T03:19:16;0.90;44.10
24636;DHT22;12772;49.794;10.024;2023-02-28T03:23:29;1.00;44.60
24636;DHT22;12772;49.794;10.024;2023-02-28T03:27:42;0.80;44.40
24636;DHT22;12772;49.794;10.024;2023-02-28T03:32:16;0.90;44.50
24636;DHT22;12772;49.794;10.024;2023-02-28T03:36:20;0.80;44.50
24636;DHT22;12772;49.794;10.024;2023-02-28T03:40:27;0.80;44.10
24636;DHT22;12772;49.794;10.024;2023-02-28T03:44:44;1.10;44.50
24636;DHT22;12772;49.794;10.024;2023-02-28T03:49:02;1.00;44.60
24636;DHT22;12772;49.794;10.024;2023-02-28T03:53:13;1.00;44.50
24636;DHT22;12772;49.794;10.024;2023-02-28T03:57:36;0.90;44.50
24636;DHT22;12772;49.794;10.024;2023-02-28T04:01:45;0.80;44.60
24636;DHT22;12772;49.794;10.024;2023-02-28T04:05:51;0.70;44.50
24636;DHT22;12772;49.794;10.024;2023-02-28T04:09:53;1.00;45.00
24636;DHT22;12772;49.794;10.024;2023-02-28T04:13:55;0.70;44.40
24636;DHT22;12772;49.794;10.024;2023-02-28T04:17:57;0.70;44.70
24636;DHT22;12772;49.794;10.024;2023-02-28T04:21:59;0.60;44.60
24636;DHT22;12772;49.794;10.024;2023-02-28T04:26:02;0.90;44.90
24636;DHT22;12772;49.794;10.024;2023-02-28T04:30:05;0.70;44.90
24636;DHT22;12772;49.794;10.024;2023-02-28T04:34:07;0.50;44.70
24636;DHT22;12772;49.794;10.024;2023-02-28T04:38:09;0.90;45.10
24636;DHT22;12772;49.794;10.024;2023-02-28T04:42:12;0.90;45.20
24636;DHT22;12772;49.794;10.024;2023-02-28T04:46:14;0.70;45.20
24636;DHT22;12772;49.794;10.024;2023-02-28T04:50:16;0.50;45.10
24636;DHT22;12772;49.794;10.024;2023-02-28T04:54:19;0.80;45.60
24636;DHT22;12772;49.794;10.024;2023-02-28T04:58:21;0.50;45.50
24636;DHT22;12772;49.794;10.024;2023-02-28T05:02:24;0.10;45.20
24636;DHT22;12772;49.794;10.024;2023-02-28T05:06:27;0.40;45.70
24636;DHT22;12772;49.794;10.024;2023-02-28T05:10:29;0.50;45.90
24636;DHT22;12772;49.794;10.024;2023-02-28T05:14:31;0.00;45.20
24636;DHT22;12772;49.794;10.024;2023-02-28T05:18:33;0.70;45.90
24636;DHT22;12772;49.794;10.024;2023-02-28T05:22:36;0.60;45.70
24636;DHT22;12772;49.794;10.024;2023-02-28T05:26:40;0.60;45.70
24636;DHT22;12772;49.794;10.024;2023-02-28T05:30:42;0.40;45.50
24636;DHT22;12772;49.794;10.024;2023-02-28T05:34:44;0.10;45.20
24636;DHT22;12772;49.794;10.024;2023-02-28T05:38:48;0.00;45.10
24636;DHT22;12772;49.794;10.024;2023-02-28T05:42:50;0.40;45.50
24636;DHT22;12772;49.794;10.024;2023-02-28T05:46:52;-0.10;45.10
24636;DHT22;12772;49.794;10.024;2023-02-28T05:50:54;0.50;45.70
24636;DHT22;12772;49.794;10.024;2023-02-28T05:54:58;-0.10;45.30
24636;DHT22;12772;49.794;10.024;2023-02-28T05:59:00;0.40;45.80
24636;DHT22;12772;49.794;10.024;2023-02-28T06:03:02;0.40;45.80
24636;DHT22;12772;49.794;10.024;2023-02-28T06:07:04;0.40;45.80
24636;DHT22;12772;49.794;10.024;2023-02-28T06:11:06;0.40;45.60
24636;DHT22;12772;49.794;10.024;2023-02-28T06:15:13;0.20;45.50
24636;DHT22;12772;49.794;10.024;2023-02-28T06:19:15;0.30;45.80
24636;DHT22;12772;49.794;10.024;2023-02-28T06:23:17;0.40;45.80
24636;DHT22;12772;49.794;10.024;2023-02-28T06:27:19;0.20;45.50
24636;DHT22;12772;49.794;10.024;2023-02-28T06:31:21;0.20;45.80
24636;DHT22;12772;49.794;10.024;2023-02-28T06:35:23;0.20;45.50
24636;DHT22;12772;49.794;10.024;2023-02-28T06:39:25;0.00;45.10
24636;DHT22;12772;49.794;10.024;2023-02-28T06:43:30;0.60;45.60
24636;DHT22;12772;49.794;10.024;2023-02-28T06:47:39;0.30;45.20
24636;DHT22;12772;49.794;10.024;2023-02-28T06:51:43;0.60;45.40
24636;DHT22;12772;49.794;10.024;2023-02-28T06:55:46;0.40;45.10
24636;DHT22;12772;49.794;10.024;2023-02-28T06:59:49;0.50;45.00
24636;DHT22;12772;49.794;10.024;2023-02-28T07:03:51;0.10;44.50
24636;DHT22;12772;49.794;10.024;2023-02-28T07:07:54;0.50;45.10
24636;DHT22;12772;49.794;10.024;2023-02-28T07:11:58;0.60;45.00
24636;DHT22;12772;49.794;10.024;2023-02-28T07:16:05;0.80;45.30
24636;DHT22;12772;49.794;10.024;2023-02-28T07:20:08;0.70;45.00
24636;DHT22;12772;49.794;10.024;2023-02-28T07:24:11;1.00;45.20
24636;DHT22;12772;49.794;10.024;2023-02-28T07:28:13;0.70;45.00
24636;DHT22;12772;49.794;10.024;2023-02-28T07:32:15;0.50;44.80
24636;DHT22;12772;49.794;10.024;2023-02-28T07:36:18;0.90;44.90
24636;DHT22;12772;49.794;10.024;2023-02-28T07:40:20;1.20;45.10
24636;DHT22;12772;49.794;10.024;2023-02-28T07:44:22;1.20;45.60
24636;DHT22;12772;49.794;10.024;2023-02-28T07:48:24;1.20;44.80
24636;DHT22;12772;49.794;10.024;2023-02-28T07:52:26;1.30;45.10
24636;DHT22;12772;49.794;10.024;2023-02-28T07:56:28;1.50;45.10
24636;DHT22;12772;49.794;10.024;2023-02-28T08:00:30;0.80;44.40
24636;DHT22;12772;49.794;10.024;2023-02-28T08:04:33;1.60;45.30
24636;DHT22;12772;49.794;10.024;2023-02-28T08:08:36;1.50;45.00
24636;DHT22;12772;49.794;10.024;2023-02-28T08:12:38;1.70;44.80
24636;DHT22;12772;49.794;10.024;2023-02-28T08:16:39;1.90;45.00
24636;DHT22;12772;49.794;10.024;2023-02-28T08:20:43;1.70;44.80
24636;DHT22;12772;49.794;10.024;2023-02-28T08:24:45;2.10;45.10
24636;DHT22;12772;49.794;10.024;2023-02-28T08:28:47;2.20;45.10
24636;DHT22;12772;49.794;10.024;2023-02-28T08:32:49;2.00;44.30
24636;DHT22;12772;49.794;10.024;2023-02-28T08:36:51;2.20;44.20
24636;DHT22;12772;49.794;10.024;2023-02-28T08:41:02;2.40;44.40
24636;DHT22;12772;49.794;10.024;2023-02-28T08:45:04;2.60;43.90
24636;DHT22;12772;49.794;10.024;2023-02-28T08:49:07;2.60;43.40
24636;DHT22;12772;49.794;10.024;2023-02-28T08:53:10;2.70;43.20
24636;DHT22;12772;49.794;10.024;2023-02-28T08:57:15;2.40;43.20
24636;DHT22;12772;49.794;10.024;2023-02-28T09:01:22;2.90;42.30
24636;DHT22;12772;49.794;10.024;2023-02-28T09:05:24;2.70;41.90
24636;DHT22;12772;49.794;10.024;2023-02-28T09:09:26;3.30;42.40
24636;DHT22;12772;49.794;10.024;2023-02-28T09:13:29;3.20;41.40
24636;DHT22;12772;49.794;10.024;2023-02-28T09:17:31;3.40;40.20
24636;DHT22;12772;49.794;10.024;2023-02-28T09:21:33;3.50;39.80
24636;DHT22;12772;49.794;10.024;2023-02-28T09:25:35;3.70;38.40
24636;DHT22;12772;49.794;10.024;2023-02-28T09:29:37;3.50;38.20
24636;DHT22;12772;49.794;10.024;2023-02-28T09:33:39;3.20;37.90
24636;DHT22;12772;49.794;10.024;2023-02-28T09:37:41;3.60;38.30
24636;DHT22;12772;49.794;10.024;2023-02-28T09:41:45;3.70;36.90
24636;DHT22;12772;49.794;10.024;2023-02-28T09:46:00;3.50;36.30
24636;DHT22;12772;49.794;10.024;2023-02-28T09:54:30;4.20;34.70
24636;DHT22;12772;49.794;10.024;2023-02-28T10:03:25;4.50;34.60
24636;DHT22;12772;49.794;10.024;2023-02-28T10:12:04;4.40;33.90
24636;DHT22;12772;49.794;10.024;2023-02-28T10:16:10;4.80;34.30
24636;DHT22;12772;49.794;10.024;2023-02-28T10:20:17;5.10;33.90
24636;DHT22;12772;49.794;10.024;2023-02-28T10:28:29;5.50;32.70
24636;DHT22;12772;49.794;10.024;2023-02-28T10:32:34;5.50;32.10
24636;DHT22;12772;49.794;10.024;2023-02-28T10:36:37;5.20;31.20
24636;DHT22;12772;49.794;10.024;2023-02-28T10:40:39;5.50;31.70
24636;DHT22;12772;49.794;10.024;2023-02-28T10:44:41;5.20;30.80
24636;DHT22;12772;49.794;10.024;2023-02-28T10:48:57;5.30;30.80
24636;DHT22;12772;49.794;10.024;2023-02-28T10:53:22;5.40;31.60
24636;DHT22;12772;49.794;10.024;2023-02-28T10:57:26;5.40;31.20
24636;DHT22;12772;49.794;10.024;2023-02-28T11:05:35;5.50;32.00
24636;DHT22;12772;49.794;10.024;2023-02-28T11:09:40;5.40;32.10
24636;DHT22;12772;49.794;10.024;2023-02-28T11:13:45;5.50;31.60
24636;DHT22;12772;49.794;10.024;2023-02-28T11:18:40;5.70;31.70
24636;DHT22;12772;49.794;10.024;2023-02-28T11:22:27;5.60;31.80
24636;DHT22;12772;49.794;10.024;2023-02-28T11:26:59;5.40;32.20
24636;DHT22;12772;49.794;10.024;2023-02-28T11:31:04;5.30;31.60
24636;DHT22;12772;49.794;10.024;2023-02-28T11:39:12;5.40;32.00
24636;DHT22;12772;49.794;10.024;2023-02-28T11:48:18;5.60;31.30
24636;DHT22;12772;49.794;10.024;2023-02-28T12:06:03;6.10;29.70
24636;DHT22;12772;49.794;10.024;2023-02-28T12:10:25;6.40;30.10
24636;DHT22;12772;49.794;10.024;2023-02-28T12:19:21;6.20;29.30
24636;DHT22;12772;49.794;10.024;2023-02-28T12:23:53;6.50;29.80
24636;DHT22;12772;49.794;10.024;2023-02-28T12:27:59;6.40;29.20
24636;DHT22;12772;49.794;10.024;2023-02-28T12:32:21;6.40;28.80
24636;DHT22;12772;49.794;10.024;2023-02-28T12:36:24;6.50;29.60
24636;DHT22;12772;49.794;10.024;2023-02-28T12:40:38;6.40;29.30
24636;DHT22;12772;49.794;10.024;2023-02-28T12:44:49;6.60;28.70
24636;DHT22;12772;49.794;10.024;2023-02-28T12:48:56;7.00;28.60
24636;DHT22;12772;49.794;10.024;2023-02-28T12:53:09;7.20;28.70
24636;DHT22;12772;49.794;10.024;2023-02-28T13:06:52;7.50;28.90
24636;DHT22;12772;49.794;10.024;2023-02-28T13:10:57;7.50;27.90
24636;DHT22;12772;49.794;10.024;2023-02-28T13:15:18;7.40;27.50
24636;DHT22;12772;49.794;10.024;2023-02-28T13:19:28;7.90;28.40
24636;DHT22;12772;49.794;10.024;2023-02-28T13:27:55;7.70;27.70
24636;DHT22;12772;49.794;10.024;2023-02-28T13:40:29;8.30;27.40
24636;DHT22;12772;49.794;10.024;2023-02-28T13:49:25;8.60;27.60
24636;DHT22;12772;49.794;10.024;2023-02-28T13:53:57;8.60;27.60
24636;DHT22;12772;49.794;10.024;2023-02-28T14:06:50;8.60;26.90
24636;DHT22;12772;49.794;10.024;2023-02-28T14:11:05;8.70;27.10
24636;DHT22;12772;49.794;10.024;2023-02-28T14:19:41;8.90;26.20
24636;DHT22;12772;49.794;10.024;2023-02-28T14:32:45;8.70;26.60
24636;DHT22;12772;49.794;10.024;2023-02-28T14:36:50;8.30;26.60
24636;DHT22;12772;49.794;10.024;2023-02-28T14:40:57;8.50;26.40
24636;DHT22;12772;49.794;10.024;2023-02-28T14:45:00;8.00;25.90
24636;DHT22;12772;49.794;10.024;2023-02-28T14:49:04;8.00;26.00
24636;DHT22;12772;49.794;10.024;2023-02-28T14:53:17;8.10;26.30
24636;DHT22;12772;49.794;10.024;2023-02-28T15:01:27;8.30;26.10
24636;DHT22;12772;49.794;10.024;2023-02-28T15:05:32;8.20;26.50
24636;DHT22;12772;49.794;10.024;2023-02-28T15:09:34;8.20;26.90
24636;DHT22;12772;49.794;10.024;2023-02-28T15:13:48;7.90;26.60
24636;DHT22;12772;49.794;10.024;2023-02-28T15:17:54;8.10;26.90
24636;DHT22;12772;49.794;10.024;2023-02-28T15:22:28;7.80;26.80
24636;DHT22;12772;49.794;10.024;2023-02-28T15:26:34;7.50;26.90
24636;DHT22;12772;49.794;10.024;2023-02-28T15:30:37;7.60;26.80
24636;DHT22;12772;49.794;10.024;2023-02-28T15:34:41;7.80;27.30
24636;DHT22;12772;49.794;10.024;2023-02-28T15:38:44;8.00;27.70
24636;DHT22;12772;49.794;10.024;2023-02-28T15:43:13;7.40;27.10
24636;DHT22;12772;49.794;10.024;2023-02-28T15:47:19;7.60;27.50
24636;DHT22;12772;49.794;10.024;2023-02-28T15:51:29;7.60;27.70
24636;DHT22;12772;49.794;10.024;2023-02-28T15:55:33;7.50;27.80
24636;DHT22;12772;49.794;10.024;2023-02-28T15:59:37;7.50;27.90
24636;DHT22;12772;49.794;10.024;2023-02-28T16:03:51;7.50;28.20
24636;DHT22;12772;49.794;10.024;2023-02-28T16:07:54;7.10;28.20
24636;DHT22;12772;49.794;10.024;2023-02-28T16:12:00;6.90;28.50
24636;DHT22;12772;49.794;10.024;2023-02-28T16:16:03;7.30;28.80
24636;DHT22;12772;49.794;10.024;2023-02-28T16:20:32;7.00;28.60
24636;DHT22;12772;49.794;10.024;2023-02-28T16:24:34;7.00;28.60
24636;DHT22;12772;49.794;10.024;2023-02-28T16:28:38;7.20;28.80
24636;DHT22;12772;49.794;10.024;2023-02-28T16:32:40;7.10;28.70
24636;DHT22;12772;49.794;10.024;2023-02-28T16:36:42;6.80;28.40
24636;DHT22;12772;49.794;10.024;2023-02-28T16:40:49;6.50;28.50
24636;DHT22;12772;49.794;10.024;2023-02-28T16:44:52;6.60;28.80
24636;DHT22;12772;49.794;10.024;2023-02-28T16:48:54;6.80;29.50
24636;DHT22;12772;49.794;10.024;2023-02-28T16:53:00;6.40;29.30
24636;DHT22;12772;49.794;10.024;2023-02-28T16:57:02;6.50;29.80
24636;DHT22;12772;49.794;10.024;2023-02-28T17:01:04;6.40;29.90
24636;DHT22;12772;49.794;10.024;2023-02-28T17:05:06;6.00;29.80
24636;DHT22;12772;49.794;10.024;2023-02-28T17:09:16;6.00;30.00
24636;DHT22;12772;49.794;10.024;2023-02-28T17:13:19;6.10;30.30
24636;DHT22;12772;49.794;10.024;2023-02-28T17:17:21;6.10;30.50
24636;DHT22;12772;49.794;10.024;2023-02-28T17:21:23;5.90;30.50
24636;DHT22;12772;49.794;10.024;2023-02-28T17:25:26;5.40;30.20
24636;DHT22;12772;49.794;10.024;2023-02-28T17:29:28;6.00;31.00
24636;DHT22;12772;49.794;10.024;2023-02-28T17:33:30;5.80;31.10
24636;DHT22;12772;49.794;10.024;2023-02-28T17:37:32;5.90;31.40
24636;DHT22;12772;49.794;10.024;2023-02-28T17:41:34;5.10;30.80
24636;DHT22;12772;49.794;10.024;2023-02-28T17:45:36;5.60;31.70
24636;DHT22;12772;49.794;10.024;2023-02-28T17:49:38;5.70;31.80
24636;DHT22;12772;49.794;10.024;2023-02-28T17:53:41;5.60;31.70
24636;DHT22;12772;49.794;10.024;2023-02-28T17:57:43;5.70;32.20
24636;DHT22;12772;49.794;10.024;2023-02-28T18:01:45;5.40;31.90
24636;DHT22;12772;49.794;10.024;2023-02-28T18:05:47;5.30;32.00
24636;DHT22;12772;49.794;10.024;2023-02-28T18:09:49;4.90;31.70
24636;DHT22;12772;49.794;10.024;2023-02-28T18:13:53;5.00;31.90
24636;DHT22;12772;49.794;10.024;2023-02-28T18:17:57;5.00;32.20
24636;DHT22;12772;49.794;10.024;2023-02-28T18:21:58;5.20;32.70
24636;DHT22;12772;49.794;10.024;2023-02-28T18:26:01;5.00;32.60
24636;DHT22;12772;49.794;10.024;2023-02-28T18:30:03;4.80;32.60
24636;DHT22;12772;49.794;10.024;2023-02-28T18:34:06;4.50;32.60
24636;DHT22;12772;49.794;10.024;2023-02-28T18:38:12;4.80;33.10
24636;DHT22;12772;49.794;10.024;2023-02-28T18:42:14;4.20;32.70
24636;DHT22;12772;49.794;10.024;2023-02-28T18:46:18;4.20;32.90
24636;DHT22;12772;49.794;10.024;2023-02-28T18:50:20;4.50;33.30
24636;DHT22;12772;49.794;10.024;2023-02-28T18:54:22;4.50;33.40
24636;DHT22;12772;49.794;10.024;2023-02-28T18:58:24;4.50;33.80
24636;DHT22;12772;49.794;10.024;2023-02-28T19:02:27;4.50;33.90
24636;DHT22;12772;49.794;10.024;2023-02-28T19:06:30;4.40;33.90
24636;DHT22;12772;49.794;10.024;2023-02-28T19:10:33;4.40;34.00
24636;DHT22;12772;49.794;10.024;2023-02-28T19:14:35;3.90;33.70
24636;DHT22;12772;49.794;10.024;2023-02-28T19:18:37;4.60;34.40
24636;DHT22;12772;49.794;10.024;2023-02-28T19:22:39;4.50;34.40
24636;DHT22;12772;49.794;10.024;2023-02-28T19:26:41;4.30;34.30
24636;DHT22;12772;49.794;10.024;2023-02-28T19:30:47;3.80;33.90
24636;DHT22;12772;49.794;10.024;2023-02-28T19:34:50;4.40;34.60
24636;DHT22;12772;49.794;10.024;2023-02-28T19:38:52;4.40;34.60
24636;DHT22;12772;49.794;10.024;2023-02-28T19:42:54;4.00;34.30
24636;DHT22;12772;49.794;10.024;2023-02-28T19:46:57;4.20;34.50
24636;DHT22;12772;49.794;10.024;2023-02-28T19:51:02;4.10;34.70
24636;DHT22;12772;49.794;10.024;2023-02-28T19:55:05;4.00;35.00
24636;DHT22;12772;49.794;10.024;2023-02-28T19:59:07;4.00;35.20
24636;DHT22;12772;49.794;10.024;2023-02-28T20:03:09;3.90;35.40
24636;DHT22;12772;49.794;10.024;2023-02-28T20:07:11;3.90;35.60
24636;DHT22;12772;49.794;10.024;2023-02-28T20:11:15;3.70;35.60
24636;DHT22;12772;49.794;10.024;2023-02-28T20:15:17;3.50;35.80
24636;DHT22;12772;49.794;10.024;2023-02-28T20:19:19;3.50;35.90
24636;DHT22;12772;49.794;10.024;2023-02-28T20:23:23;3.80;36.40
24636;DHT22;12772;49.794;10.024;2023-02-28T20:27:29;3.70;36.60
24636;DHT22;12772;49.794;10.024;2023-02-28T20:31:33;3.60;36.80
24636;DHT22;12772;49.794;10.024;2023-02-28T20:35:37;3.60;37.20
24636;DHT22;12772;49.794;10.024;2023-02-28T20:39:39;3.50;37.50
24636;DHT22;12772;49.794;10.024;2023-02-28T20:43:41;3.70;38.10
24636;DHT22;12772;49.794;10.024;2023-02-28T20:47:43;3.60;38.30
24636;DHT22;12772;49.794;10.024;2023-02-28T20:51:45;3.40;38.10
24636;DHT22;12772;49.794;10.024;2023-02-28T20:55:59;3.50;38.20
24636;DHT22;12772;49.794;10.024;2023-02-28T21:00:02;3.00;37.70
24636;DHT22;12772;49.794;10.024;2023-02-28T21:04:05;3.60;38.30
24636;DHT22;12772;49.794;10.024;2023-02-28T21:08:07;3.60;38.30
24636;DHT22;12772;49.794;10.024;2023-02-28T21:12:09;3.40;38.10
24636;DHT22;12772;49.794;10.024;2023-02-28T21:16:14;3.20;37.90
24636;DHT22;12772;49.794;10.024;2023-02-28T21:20:17;3.50;38.20
24636;DHT22;12772;49.794;10.024;2023-02-28T21:24:22;3.30;38.70
24636;DHT22;12772;49.794;10.024;2023-02-28T21:28:24;3.00;37.70
24636;DHT22;12772;49.794;10.024;2023-02-28T21:32:26;3.40;38.10
24636;DHT22;12772;49.794;10.024;2023-02-28T21:36:30;3.20;38.40
24636;DHT22;12772;49.794;10.024;2023-02-28T21:40:33;3.30;38.60
24636;DHT22;12772;49.794;10.024;2023-02-28T21:44:35;3.00;38.60
24636;DHT22;12772;49.794;10.024;2023-02-28T21:48:37;3.00;38.90
24636;DHT22;12772;49.794;10.024;2023-02-28T21:52:39;3.30;39.40
24636;DHT22;12772;49.794;10.024;2023-02-28T21:56:42;2.60;38.70
24636;DHT22;12772;49.794;10.024;2023-02-28T22:00:44;2.90;39.40
24636;DHT22;12772;49.794;10.024;2023-02-28T22:04:47;3.20;39.80
24636;DHT22;12772;49.794;10.024;2023-02-28T22:08:54;3.10;40.00
24636;DHT22;12772;49.794;10.024;2023-02-28T22:12:57;2.70;39.50
24636;DHT22;12772;49.794;10.024;2023-02-28T22:17:01;2.80;39.60
24636;DHT22;12772;49.794;10.024;2023-02-28T22:21:04;3.00;39.90
24636;DHT22;12772;49.794;10.024;2023-02-28T22:25:06;2.70;39.80
24636;DHT22;12772;49.794;10.024;2023-02-28T22:29:09;3.00;40.30
24636;DHT22;12772;49.794;10.024;2023-02-28T22:33:11;2.70;40.20
24636;DHT22;12772;49.794;10.024;2023-02-28T22:37:14;2.90;40.40
24636;DHT22;12772;49.794;10.024;2023-02-28T22:41:18;2.80;40.20
24636;DHT22;12772;49.794;10.024;2023-02-28T22:45:21;3.00;40.40
24636;DHT22;12772;49.794;10.024;2023-02-28T22:49:23;2.70;40.10
24636;DHT22;12772;49.794;10.024;2023-02-28T22:53:25;2.80;40.40
24636;DHT22;12772;49.794;10.024;2023-02-28T22:57:27;2.70;40.50
24636;DHT22;12772;49.794;10.024;2023-02-28T23:01:31;2.70;40.60
24636;DHT22;12772;49.794;10.024;2023-02-28T23:05:34;2.80;40.70
24636;DHT22;12772;49.794;10.024;2023-02-28T23:09:36;2.80;40.80
24636;DHT22;12772;49.794;10.024;2023-02-28T23:13:38;2.60;40.60
24636;DHT22;12772;49.794;10.024;2023-02-28T23:17:40;2.20;40.20
24636;DHT22;12772;49.794;10.024;2023-02-28T23:21:43;2.50;40.70
24636;DHT22;12772;49.794;10.024;2023-02-28T23:25:46;2.60;41.00
24636;DHT22;12772;49.794;10.024;2023-02-28T23:29:48;2.50;41.10
24636;DHT22;12772;49.794;10.024;2023-02-28T23:33:50;2.60;41.40
24636;DHT22;12772;49.794;10.024;2023-02-28T23:37:52;2.60;41.60
24636;DHT22;12772;49.794;10.024;2023-02-28T23:41:57;2.40;41.50
24636;DHT22;12772;49.794;10.024;2023-02-28T23:45:59;2.00;41.10
24636;DHT22;12772;49.794;10.024;2023-02-28T23:50:02;2.50;41.80
24636;DHT22;12772;49.794;10.024;2023-02-28T23:54:04;2.60;41.90
24636;DHT22;12772;49.794;10.024;2023-02-28T23:58:06;2.30;41.60
